• Join FlightAware (Why Join?)
  • Login
  • US Flag 
03:54AM EDT


 

Airport Tracker/Info


-or-


 

Live Flight TrackerFlight Track Log ✈ SWA2383 ✈ 20-Apr-2013 ✈ KOMA - KPHX

Flight Track Log - Related Links

Times and Time Zones

All times are in EDT time to prevent confusion due to time zone crossing. See the SWA2383 flight status page for this flight to view local times or setup timezone preferences in your user account.

Time Position Orientation Groundspeed Altitude Reporting Facility
EDT Latitude Longitude Course Direction KTS MPH feet Rate Location/Type
02:48PM 41.2200 -95.8978 185° South 233 268 3,100  Level Minneapolis Center
02:49PM 41.1994 -95.9211 221° Southwest 235 270 3,000 1,260 Descending Minneapolis Center
02:49PM 41.1767 -95.9692 238° Southwest 275 316 4,400 2,820 Climbing Minneapolis Center
02:50PM 41.1581 -96.0031 234° Southwest 255 293 5,900 3,420 Climbing Minneapolis Center
02:51PM 41.1147 -96.0789 233° Southwest 258 297 9,500 2,640 Climbing Minneapolis Center
02:52PM 41.0789 -96.1678 242° Southwest 266 306 11,400 2,340 Climbing Minneapolis Center
02:53PM 41.0344 -96.2739 241° Southwest 312 359 14,300 2,760 Climbing Minneapolis Center
02:54PM 40.9872 -96.3872 241° Southwest 340 391 17,100 2,460 Climbing Minneapolis Center
02:55PM 40.9369 -96.5064 241° Southwest 360 414 19,400 2,520 Climbing Minneapolis Center
02:56PM 40.8847 -96.6286 241° Southwest 375 432 22,300 2,580 Climbing Minneapolis Center
02:57PM 40.8325 -96.7508 241° Southwest 379 436 24,800 2,160 Climbing Minneapolis Center
02:58PM 40.7781 -96.8772 240° Southwest 389 448 26,800 1,860 Climbing Minneapolis Center
02:59PM 40.7239 -97.0056 241° Southwest 397 457 28,600 1,920 Climbing Minneapolis Center
03:00PM 40.6556 -97.1628 240° Southwest 408 470 30,800 1,800 Climbing Minneapolis Center
03:01PM 40.5989 -97.2906 240° Southwest 407 468 32,400 1,680 Climbing Minneapolis Center
03:02PM 40.5394 -97.4275 240° Southwest 406 467 34,300 1,620 Climbing Minneapolis Center
03:03PM 40.4833 -97.5569 240° Southwest 406 467 35,800 1,260 Climbing Minneapolis Center
03:04PM 40.4381 -97.6597 240° Southwest 405 466 37,000 1,020 Climbing Minneapolis Center
03:05PM 40.3706 -97.8133 240° Southwest 404 465 38,000 480 Climbing Minneapolis Center
03:06PM 40.3125 -97.9442 240° Southwest 409 471 38,000  Level Minneapolis Center
03:07PM 40.2536 -98.0744 239° Southwest 413 475 38,000  Level Minneapolis Center
03:08PM 40.1964 -98.2028 240° Southwest 409 471 38,000  Level Minneapolis Center
03:09PM 40.1378 -98.3314 239° Southwest 410 472 38,000  Level Minneapolis Center
03:10PM 40.0797 -98.4597 239° Southwest 408 470 38,000  Level Minneapolis Center
03:11PM 40.0222 -98.5872 240° Southwest 407 468 38,000  Level Minneapolis Center
03:12PM 39.9642 -98.7139 239° Southwest 407 468 38,000  Level Minneapolis Center
03:13PM 39.8953 -98.8675 240° Southwest 407 468 38,000  Level Minneapolis Center
03:14PM 39.8481 -98.9719 240° Southwest 411 473 38,000  Level Denver Center
03:15PM 39.7897 -99.0967 239° Southwest 405 466 38,000  Level Denver Center
03:16PM 39.7317 -99.2239 239° Southwest 407 468 38,000  Level Denver Center
03:17PM 39.6725 -99.3503 239° Southwest 407 468 38,000  Level Denver Center
03:18PM 39.6136 -99.4767 239° Southwest 408 470 38,000  Level Denver Center
03:19PM 39.5550 -99.6017 239° Southwest 406 467 38,000  Level Denver Center
03:20PM 39.4969 -99.7264 239° Southwest 404 465 38,000  Level Denver Center
03:21PM 39.4328 -99.8697 240° Southwest 405 466 38,000  Level Denver Center
03:22PM 39.3892 -99.9958 246° West 403 464 38,000  Level Denver Center
03:23PM 39.3350 -100.1428 245° Southwest 404 465 38,000  Level Denver Center
03:24PM 39.2894 -100.2694 245° Southwest 406 467 38,000 180 Level Denver Center
03:25PM 39.2433 -100.3953 245° Southwest 406 467 38,400 720 Climbing Denver Center
03:26PM 39.1867 -100.5444 244° Southwest 413 475 39,500 780 Climbing Denver Center
03:27PM 39.1406 -100.6725 245° Southwest 411 473 40,000 240 Climbing Denver Center
03:28PM 39.0858 -100.8208 245° Southwest 410 472 40,000  Level Denver Center
03:29PM 39.0381 -100.9453 244° Southwest 406 467 40,000  Level Denver Center
03:31PM 38.9861 -101.0842 244° Southwest 413 475 40,000  Level Denver Center
03:32PM 38.9394 -101.2092 244° Southwest 408 470 40,000  Level Denver Center
03:33PM 38.8847 -101.3533 244° Southwest 404 465 40,000  Level Denver Center
03:34PM 38.8378 -101.4769 244° Southwest 403 464 40,000  Level Denver Center
03:35PM 38.7828 -101.6217 244° Southwest 406 467 40,000  Level Denver Center
03:36PM 38.7353 -101.7447 244° Southwest 404 465 40,000  Level Denver Center
03:37PM 38.6872 -101.8689 244° Southwest 407 468 40,000  Level Denver Center
03:38PM 38.6314 -102.0122 244° Southwest 405 466 40,000  Level Denver Center
03:39PM 38.5825 -102.1369 243° Southwest 410 472 40,000  Level Denver Center
03:40PM 38.5283 -102.2806 244° Southwest 404 465 40,000  Level Denver Center
03:41PM 38.4789 -102.4039 243° Southwest 407 468 40,000  Level Denver Center
03:42PM 38.4222 -102.5478 243° Southwest 408 470 40,000  Level Denver Center
03:43PM 38.3739 -102.6719 244° Southwest 410 472 40,000  Level Denver Center
03:44PM 38.3244 -102.7964 243° Southwest 410 472 40,000  Level Denver Center
03:45PM 38.2669 -102.9414 243° Southwest 412 474 40,000  Level Denver Center
03:46PM 38.2169 -103.0647 243° Southwest 410 472 40,000  Level Denver Center
03:47PM 38.1647 -103.1953 243° Southwest 408 470 40,000  Level Denver Center
03:48PM 38.1067 -103.3386 243° Southwest 409 471 40,000  Level Denver Center
03:49PM 38.0578 -103.4597 243° Southwest 405 466 40,000  Level Denver Center
03:50PM 38.0089 -103.5806 243° Southwest 401 461 40,000  Level Denver Center
03:51PM 37.9517 -103.7211 243° Southwest 403 464 40,000  Level Denver Center
03:52PM 37.9019 -103.8408 242° Southwest 403 464 40,000  Level Denver Center
03:53PM 37.8444 -103.9800 242° Southwest 402 463 40,000  Level Denver Center
03:54PM 37.7947 -104.0989 242° Southwest 404 465 40,000  Level Denver Center
03:55PM 37.7358 -104.2381 242° Southwest 405 466 40,000  Level Denver Center
03:56PM 37.6864 -104.3589 243° Southwest 408 470 40,000  Level Denver Center
03:57PM 37.6269 -104.5014 242° Southwest 413 475 40,000  Level Denver Center
03:58PM 37.5747 -104.6239 242° Southwest 416 479 40,000  Level Denver Center
03:59PM 37.5239 -104.7464 242° Southwest 415 478 40,000  Level Denver Center
04:00PM 37.4619 -104.8903 242° Southwest 419 482 40,000  Level Denver Center
04:01PM 37.4103 -105.0114 242° Southwest 414 476 40,000  Level Denver Center
04:02PM 37.3503 -105.1528 242° Southwest 410 472 40,000  Level Denver Center
04:03PM 37.2953 -105.2831 242° Southwest 415 478 40,000  Level Denver Center
04:04PM 37.2436 -105.3950 240° Southwest 413 475 40,000  Level Denver Center
04:05PM 37.1828 -105.5361 242° Southwest 412 474 40,000  Level Denver Center
04:07PM 37.1153 -105.6956 242° Southwest 405 466 40,000  Level Denver Center
04:08PM 37.0622 -105.8164 241° Southwest 411 473 40,000  Level Denver Center
04:09PM 37.0097 -105.9367 241° Southwest 411 473 40,000  Level Denver Center
04:10PM 36.9467 -106.0769 241° Southwest 414 476 40,000  Level Denver Center
04:11PM 36.8911 -106.2044 241° Southwest 412 474 40,000  Level Denver Center
04:12PM 36.8381 -106.3231 241° Southwest 410 472 40,000  Level Denver Center
04:13PM 36.7772 -106.4608 241° Southwest 407 468 40,000  Level Denver Center
04:14PM 36.7336 -106.5597 241° Southwest 407 468 40,000  Level Denver Center
04:15PM 36.6717 -106.6969 241° Southwest 406 467 40,000  Level Denver Center
04:16PM 36.6117 -106.8336 241° Southwest 403 464 40,000  Level Denver Center
04:17PM 36.5578 -106.9497 240° Southwest 404 465 40,000  Level Denver Center
04:18PM 36.4975 -107.0844 241° Southwest 401 461 40,000  Level Denver Center
04:19PM 36.4450 -107.1992 240° Southwest 399 459 40,000  Level Denver Center
04:20PM 36.3931 -107.3144 241° Southwest 400 460 40,000  Level Denver Center
04:21PM 36.3211 -107.4678 240° Southwest 400 460 40,000  Level Albuquerque Center
04:22PM 36.2575 -107.5769 234° Southwest 405 466 40,000  Level Albuquerque Center
04:23PM 36.1919 -107.6847 233° Southwest 408 470 40,000  Level Albuquerque Center
04:24PM 36.1167 -107.8142 234° Southwest 412 474 40,000  Level Albuquerque Center
04:25PM 36.0508 -107.9247 234° Southwest 415 478 40,000  Level Albuquerque Center
04:26PM 35.9739 -108.0533 234° Southwest 416 479 40,000  Level Albuquerque Center
04:27PM 35.9075 -108.1622 233° Southwest 415 478 40,000  Level Albuquerque Center
04:28PM 35.8431 -108.2708 234° Southwest 411 473 40,000  Level Albuquerque Center
04:29PM 35.7686 -108.3942 233° Southwest 403 464 40,000  Level Albuquerque Center
04:30PM 35.7050 -108.5003 234° Southwest 401 461 40,000  Level Albuquerque Center
04:31PM 35.6297 -108.6228 233° Southwest 399 459 40,000  Level Albuquerque Center
04:32PM 35.5658 -108.7281 233° Southwest 400 460 40,000  Level Albuquerque Center
04:33PM 35.5022 -108.8331 233° Southwest 399 459 40,000  Level Albuquerque Center
04:34PM 35.4211 -108.9475 229° Southwest 398 458 40,000  Level Albuquerque Center
04:35PM 35.3464 -109.0436 226° Southwest 405 466 40,000  Level Albuquerque Center
04:36PM 35.2603 -109.1542 226° Southwest 402 463 40,000  Level Albuquerque Center
04:37PM 35.1864 -109.2497 227° Southwest 402 463 40,000  Level Albuquerque Center
04:38PM 35.1094 -109.3481 226° Southwest 413 475 40,000  Level Albuquerque Center
04:39PM 35.0222 -109.4614 227° Southwest 412 474 40,000 -300 Level Albuquerque Center
04:41PM 34.9450 -109.5542 225° Southwest 408 470 39,500 -1,560 Descending Albuquerque Center
04:42PM 34.8578 -109.6656 226° Southwest 405 466 36,800 -1,740 Descending Albuquerque Center
04:43PM 34.7844 -109.7594 226° Southwest 401 461 36,000 -720 Descending Albuquerque Center
04:44PM 34.7042 -109.8717 229° Southwest 395 455 35,400 -780 Descending Albuquerque Center
04:45PM 34.6625 -109.9825 245° Southwest 381 438 34,500 -960 Descending Albuquerque Center
04:46PM 34.6133 -110.1100 245° Southwest 374 430 33,500 -1,020 Descending Albuquerque Center
04:47PM 34.5739 -110.2306 248° West 392 451 32,500 -960 Descending Albuquerque Center
04:48PM 34.5281 -110.3389 243° Southwest 382 440 31,600 -1,020 Descending Albuquerque Center
04:49PM 34.4833 -110.4683 247° West 392 451 30,400 -1,080 Descending Albuquerque Center
04:50PM 34.4411 -110.5794 245° Southwest 371 427 29,400 -1,260 Descending Albuquerque Center
04:51PM 34.4006 -110.6889 246° West 359 413 27,900 -1,740 Descending Albuquerque Center
04:52PM 34.3536 -110.7914 241° Southwest 352 405 25,900 -1,980 Descending Albuquerque Center
04:53PM 34.2903 -110.8794 229° Southwest 350 403 23,900 -2,160 Descending Albuquerque Center
04:54PM 34.2083 -110.9839 227° Southwest 353 406 21,500 -2,220 Descending Albuquerque Center
04:55PM 34.1406 -111.0717 227° Southwest 356 410 19,400 -1,980 Descending Albuquerque Center
04:56PM 34.0747 -111.1578 227° Southwest 352 405 17,500 -1,920 Descending Albuquerque Center
04:57PM 34.0092 -111.2419 227° Southwest 347 399 15,500 -1,920 Descending Albuquerque Center
04:58PM 33.9456 -111.3239 227° Southwest 336 387 13,600 -1,560 Descending Albuquerque Center
04:59PM 33.8814 -111.4042 226° Southwest 332 382 12,300 -1,260 Descending Albuquerque Center
05:00PM 33.8117 -111.4656 216° Southwest 311 358 11,000 -1,140 Descending Albuquerque Center
05:01PM 33.7436 -111.5236 215° Southwest 299 344 10,000 -1,320 Descending Albuquerque Center
05:02PM 33.6669 -111.5894 216° Southwest 282 325 8,400 -1,620 Descending Albuquerque Center
05:03PM 33.6053 -111.6428 216° Southwest 274 315 6,700 -1,500 Descending Albuquerque Center
05:04PM 33.5422 -111.6972 216° Southwest 276 318 5,300 -1,020 Descending Albuquerque Center
05:05PM 33.4956 -111.7644 230° Southwest 266 306 4,600 -660 Descending Albuquerque Center
05:06PM 33.4586 -111.8347 238° Southwest 251 289 4,000 -900 Descending Albuquerque Center
05:07PM 33.4322 -111.8917 241° Southwest 199 229 2,800 -900 Descending Albuquerque Center
05:08PM 33.4317 -111.9411 269° West 152 175 2,200 -840 Descending Albuquerque Center
05:09PM 33.4306 -111.9947 269° West 139 160 1,200 -1,020 Descending Albuquerque Center
05:11PM 33.4343 -112.0116 289° West  Level Estimated
05:18PM 33.4343 -112.0116 90° East  Level Estimated